sensor_id;sensor_type;location;lat;lon;timestamp;pressure;altitude;pressure_sealevel;temperature;humidity
3780;BME280;1905;52.482;9.802;2023-07-31T00:01:08;100488.84;;;17.82;78.90
3780;BME280;1905;52.482;9.802;2023-07-31T00:03:36;100487.97;;;17.82;78.73
3780;BME280;1905;52.482;9.802;2023-07-31T00:06:05;100495.88;;;17.83;79.00
3780;BME280;1905;52.482;9.802;2023-07-31T00:08:33;100490.66;;;17.82;78.84
3780;BME280;1905;52.482;9.802;2023-07-31T00:11:00;100489.94;;;17.80;78.37
3780;BME280;1905;52.482;9.802;2023-07-31T00:13:29;100479.47;;;17.77;79.16
3780;BME280;1905;52.482;9.802;2023-07-31T00:15:59;100479.25;;;17.80;78.54
3780;BME280;1905;52.482;9.802;2023-07-31T00:18:27;100483.72;;;17.79;78.62
3780;BME280;1905;52.482;9.802;2023-07-31T00:20:55;100483.72;;;17.79;78.44
3780;BME280;1905;52.482;9.802;2023-07-31T00:23:22;100480.44;;;17.76;78.40
3780;BME280;1905;52.482;9.802;2023-07-31T00:25:50;100472.41;;;17.76;79.15
3780;BME280;1905;52.482;9.802;2023-07-31T00:28:18;100469.00;;;17.74;78.62
3780;BME280;1905;52.482;9.802;2023-07-31T00:30:46;100472.41;;;17.76;78.20
3780;BME280;1905;52.482;9.802;2023-07-31T00:33:15;100465.34;;;17.75;78.63
3780;BME280;1905;52.482;9.802;2023-07-31T00:35:43;100461.00;;;17.74;78.17
3780;BME280;1905;52.482;9.802;2023-07-31T00:38:11;100453.00;;;17.74;78.99
3780;BME280;1905;52.482;9.802;2023-07-31T00:40:39;100445.69;;;17.76;78.75
3780;BME280;1905;52.482;9.802;2023-07-31T00:43:06;100447.03;;;17.70;79.00
3780;BME280;1905;52.482;9.802;2023-07-31T00:45:34;100440.81;;;17.70;79.00
3780;BME280;1905;52.482;9.802;2023-07-31T00:48:02;100433.78;;;17.69;78.30
3780;BME280;1905;52.482;9.802;2023-07-31T00:50:34;100437.19;;;17.71;78.74
3780;BME280;1905;52.482;9.802;2023-07-31T00:53:04;100423.94;;;17.69;79.12
3780;BME280;1905;52.482;9.802;2023-07-31T00:55:32;100426.75;;;17.68;78.61
3780;BME280;1905;52.482;9.802;2023-07-31T00:58:06;100428.47;;;17.69;78.73
3780;BME280;1905;52.482;9.802;2023-07-31T01:00:34;100414.47;;;17.65;79.06
3780;BME280;1905;52.482;9.802;2023-07-31T01:03:03;100410.94;;;17.65;79.29
3780;BME280;1905;52.482;9.802;2023-07-31T01:05:39;100410.94;;;17.65;78.86
3780;BME280;1905;52.482;9.802;2023-07-31T01:08:15;100404.75;;;17.64;79.22
3780;BME280;1905;52.482;9.802;2023-07-31T01:10:50;100403.88;;;17.64;79.00
3780;BME280;1905;52.482;9.802;2023-07-31T01:13:23;100401.22;;;17.64;78.85
3780;BME280;1905;52.482;9.802;2023-07-31T01:15:50;100395.88;;;17.64;79.20
3780;BME280;1905;52.482;9.802;2023-07-31T01:18:20;100410.94;;;17.65;78.61
3780;BME280;1905;52.482;9.802;2023-07-31T01:20:54;100416.53;;;17.62;78.70
3780;BME280;1905;52.482;9.802;2023-07-31T01:23:56;100410.94;;;17.65;77.51
3780;BME280;1905;52.482;9.802;2023-07-31T01:26:34;100393.47;;;17.61;78.61
3780;BME280;1905;52.482;9.802;2023-07-31T01:29:08;100395.38;;;17.59;79.08
3780;BME280;1905;52.482;9.802;2023-07-31T01:31:39;100396.16;;;17.61;78.62
3780;BME280;1905;52.482;9.802;2023-07-31T01:34:10;100390.53;;;17.64;78.77
3780;BME280;1905;52.482;9.802;2023-07-31T01:36:38;100388.13;;;17.61;78.60
3780;BME280;1905;52.482;9.802;2023-07-31T01:39:07;100390.91;;;17.59;79.26
3780;BME280;1905;52.482;9.802;2023-07-31T01:41:36;100387.38;;;17.59;78.99
3780;BME280;1905;52.482;9.802;2023-07-31T01:44:04;100385.56;;;17.59;79.19
3780;BME280;1905;52.482;9.802;2023-07-31T01:46:33;100386.41;;;17.60;79.15
3780;BME280;1905;52.482;9.802;2023-07-31T01:49:01;100380.22;;;17.59;78.55
3780;BME280;1905;52.482;9.802;2023-07-31T01:51:29;100375.13;;;17.56;79.12
3780;BME280;1905;52.482;9.802;2023-07-31T01:54:00;100373.31;;;17.57;79.07
3780;BME280;1905;52.482;9.802;2023-07-31T01:56:29;100372.34;;;17.58;79.13
3780;BME280;1905;52.482;9.802;2023-07-31T01:59:01;100363.56;;;17.56;78.83
3780;BME280;1905;52.482;9.802;2023-07-31T02:01:30;100362.75;;;17.55;79.19
3780;BME280;1905;52.482;9.802;2023-07-31T02:03:58;100361.91;;;17.55;79.19
3780;BME280;1905;52.482;9.802;2023-07-31T02:06:25;100359.94;;;17.57;78.64
3780;BME280;1905;52.482;9.802;2023-07-31T02:08:54;100354.75;;;17.55;79.54
3780;BME280;1905;52.482;9.802;2023-07-31T02:11:22;100353.13;;;17.53;78.82
3780;BME280;1905;52.482;9.802;2023-07-31T02:13:50;100340.72;;;17.52;79.40
3780;BME280;1905;52.482;9.802;2023-07-31T02:16:19;100344.34;;;17.51;79.36
3780;BME280;1905;52.482;9.802;2023-07-31T02:18:46;100344.34;;;17.51;79.34
3780;BME280;1905;52.482;9.802;2023-07-31T02:21:14;100339.88;;;17.51;79.40
3780;BME280;1905;52.482;9.802;2023-07-31T02:23:42;100344.34;;;17.51;79.33
3780;BME280;1905;52.482;9.802;2023-07-31T02:26:10;100337.56;;;17.47;79.44
3780;BME280;1905;52.482;9.802;2023-07-31T02:28:38;100336.59;;;17.48;79.49
3780;BME280;1905;52.482;9.802;2023-07-31T02:31:11;100337.56;;;17.47;79.40
3780;BME280;1905;52.482;9.802;2023-07-31T02:33:43;100333.09;;;17.47;79.31
3780;BME280;1905;52.482;9.802;2023-07-31T02:36:10;100332.00;;;17.50;79.23
3780;BME280;1905;52.482;9.802;2023-07-31T02:38:38;100332.34;;;17.45;79.51
3780;BME280;1905;52.482;9.802;2023-07-31T02:41:06;100330.41;;;17.47;79.49
3780;BME280;1905;52.482;9.802;2023-07-31T02:43:34;100326.03;;;17.46;79.25
3780;BME280;1905;52.482;9.802;2023-07-31T02:46:02;100324.94;;;17.49;79.20
3780;BME280;1905;52.482;9.802;2023-07-31T02:48:31;100335.84;;;17.46;79.75
3780;BME280;1905;52.482;9.802;2023-07-31T02:51:00;100327.84;;;17.46;79.64
3780;BME280;1905;52.482;9.802;2023-07-31T02:53:28;100332.47;;;17.44;79.54
3780;BME280;1905;52.482;9.802;2023-07-31T02:55:57;100332.22;;;17.47;79.36
3780;BME280;1905;52.482;9.802;2023-07-31T02:58:24;100327.13;;;17.44;79.42
3780;BME280;1905;52.482;9.802;2023-07-31T03:00:52;100329.66;;;17.45;79.23
3780;BME280;1905;52.482;9.802;2023-07-31T03:03:20;100321.78;;;17.44;79.34
3780;BME280;1905;52.482;9.802;2023-07-31T03:05:48;100329.06;;;17.42;79.69
3780;BME280;1905;52.482;9.802;2023-07-31T03:08:17;100330.75;;;17.43;79.66
3780;BME280;1905;52.482;9.802;2023-07-31T03:10:45;100325.66;;;17.40;79.82
3780;BME280;1905;52.482;9.802;2023-07-31T03:13:12;100325.41;;;17.43;79.76
3780;BME280;1905;52.482;9.802;2023-07-31T03:15:41;100329.91;;;17.42;79.63
3780;BME280;1905;52.482;9.802;2023-07-31T03:18:09;100322.03;;;17.41;79.74
3780;BME280;1905;52.482;9.802;2023-07-31T03:20:37;100333.44;;;17.43;79.91
3780;BME280;1905;52.482;9.802;2023-07-31T03:23:09;100331.75;;;17.42;79.60
3780;BME280;1905;52.482;9.802;2023-07-31T03:25:38;100324.06;;;17.37;79.50
3780;BME280;1905;52.482;9.802;2023-07-31T03:28:05;100325.66;;;17.40;79.88
3780;BME280;1905;52.482;9.802;2023-07-31T03:30:35;100325.66;;;17.40;79.85
3780;BME280;1905;52.482;9.802;2023-07-31T03:33:04;100332.69;;;17.41;79.93
3780;BME280;1905;52.482;9.802;2023-07-31T03:35:32;100331.84;;;17.40;79.94
3780;BME280;1905;52.482;9.802;2023-07-31T03:37:59;100325.78;;;17.38;79.71
3780;BME280;1905;52.482;9.802;2023-07-31T03:40:27;100323.13;;;17.38;79.66
3780;BME280;1905;52.482;9.802;2023-07-31T03:42:56;100327.59;;;17.38;79.72
3780;BME280;1905;52.482;9.802;2023-07-31T03:45:24;100320.53;;;17.37;80.10
3780;BME280;1905;52.482;9.802;2023-07-31T03:47:51;100322.25;;;17.38;80.19
3780;BME280;1905;52.482;9.802;2023-07-31T03:50:21;100328.44;;;17.38;80.27
3780;BME280;1905;52.482;9.802;2023-07-31T03:52:48;100325.06;;;17.36;79.86
3780;BME280;1905;52.482;9.802;2023-07-31T03:55:16;100321.41;;;17.37;80.22
3780;BME280;1905;52.482;9.802;2023-07-31T03:57:44;100322.25;;;17.38;80.09
3780;BME280;1905;52.482;9.802;2023-07-31T04:00:14;100322.38;;;17.36;79.54
3780;BME280;1905;52.482;9.802;2023-07-31T04:02:41;100317.16;;;17.35;80.10
3780;BME280;1905;52.482;9.802;2023-07-31T04:05:09;100313.38;;;17.37;80.22
3780;BME280;1905;52.482;9.802;2023-07-31T04:07:37;100315.81;;;17.40;79.63
3780;BME280;1905;52.482;9.802;2023-07-31T04:10:05;100309.03;;;17.36;80.02
3780;BME280;1905;52.482;9.802;2023-07-31T04:12:36;100310.84;;;17.36;79.92
3780;BME280;1905;52.482;9.802;2023-07-31T04:15:05;100307.31;;;17.35;80.17
3780;BME280;1905;52.482;9.802;2023-07-31T04:17:34;100298.69;;;17.32;80.17
3780;BME280;1905;52.482;9.802;2023-07-31T04:20:03;100305.75;;;17.33;80.09
3780;BME280;1905;52.482;9.802;2023-07-31T04:22:33;100302.13;;;17.34;80.05
3780;BME280;1905;52.482;9.802;2023-07-31T04:25:07;100296.50;;;17.37;80.36
3780;BME280;1905;52.482;9.802;2023-07-31T04:27:35;100306.22;;;17.38;80.15
3780;BME280;1905;52.482;9.802;2023-07-31T04:30:07;100299.19;;;17.37;80.66
3780;BME280;1905;52.482;9.802;2023-07-31T04:32:36;100303.69;;;17.36;80.79
3780;BME280;1905;52.482;9.802;2023-07-31T04:35:07;100289.38;;;17.37;80.52
3780;BME280;1905;52.482;9.802;2023-07-31T04:37:38;100293.59;;;17.40;80.61
3780;BME280;1905;52.482;9.802;2023-07-31T04:40:07;100290.13;;;17.39;80.51
3780;BME280;1905;52.482;9.802;2023-07-31T04:42:35;100295.31;;;17.41;80.26
3780;BME280;1905;52.482;9.802;2023-07-31T04:45:06;100298.94;;;17.40;80.38
3780;BME280;1905;52.482;9.802;2023-07-31T04:47:34;100306.00;;;17.41;80.38
3780;BME280;1905;52.482;9.802;2023-07-31T04:50:03;100296.28;;;17.40;80.41
3780;BME280;1905;52.482;9.802;2023-07-31T04:52:34;100294.59;;;17.39;80.44
3780;BME280;1905;52.482;9.802;2023-07-31T04:55:02;100291.69;;;17.42;80.19
3780;BME280;1905;52.482;9.802;2023-07-31T04:57:32;100292.53;;;17.42;80.75
3780;BME280;1905;52.482;9.802;2023-07-31T05:00:00;100288.50;;;17.37;81.93
3780;BME280;1905;52.482;9.802;2023-07-31T05:02:28;100288.28;;;17.40;81.35
3780;BME280;1905;52.482;9.802;2023-07-31T05:04:56;100289.97;;;17.41;81.60
3780;BME280;1905;52.482;9.802;2023-07-31T05:07:25;100280.16;;;17.41;81.28
3780;BME280;1905;52.482;9.802;2023-07-31T05:09:54;100280.03;;;17.43;80.50
3780;BME280;1905;52.482;9.802;2023-07-31T05:12:24;100275.44;;;17.45;81.22
3780;BME280;1905;52.482;9.802;2023-07-31T05:14:52;100278.81;;;17.47;80.73
3780;BME280;1905;52.482;9.802;2023-07-31T05:17:19;100273.34;;;17.48;80.74
3780;BME280;1905;52.482;9.802;2023-07-31T05:19:47;100270.81;;;17.47;80.65
3780;BME280;1905;52.482;9.802;2023-07-31T05:22:15;100260.84;;;17.49;81.13
3780;BME280;1905;52.482;9.802;2023-07-31T05:24:45;100262.56;;;17.50;80.86
3780;BME280;1905;52.482;9.802;2023-07-31T05:27:12;100261.81;;;17.48;81.37
3780;BME280;1905;52.482;9.802;2023-07-31T05:29:44;100258.19;;;17.49;81.29
3780;BME280;1905;52.482;9.802;2023-07-31T05:32:13;100261.72;;;17.49;81.29
3780;BME280;1905;52.482;9.802;2023-07-31T05:34:40;100255.28;;;17.52;80.78
3780;BME280;1905;52.482;9.802;2023-07-31T05:37:09;100254.56;;;17.50;82.16
3780;BME280;1905;52.482;9.802;2023-07-31T05:39:38;100250.19;;;17.49;82.16
3780;BME280;1905;52.482;9.802;2023-07-31T05:42:07;100258.91;;;17.51;81.48
3780;BME280;1905;52.482;9.802;2023-07-31T05:44:35;100262.34;;;17.53;85.81
3780;BME280;1905;52.482;9.802;2023-07-31T05:47:04;100258.91;;;17.51;81.84
3780;BME280;1905;52.482;9.802;2023-07-31T05:49:31;100256.03;;;17.54;81.93
3780;BME280;1905;52.482;9.802;2023-07-31T05:52:05;100254.22;;;17.54;81.64
3780;BME280;1905;52.482;9.802;2023-07-31T05:54:34;100249.59;;;17.56;81.65
3780;BME280;1905;52.482;9.802;2023-07-31T05:57:02;100253.38;;;17.54;82.44
3780;BME280;1905;52.482;9.802;2023-07-31T05:59:31;100252.16;;;17.58;81.77
3780;BME280;1905;52.482;9.802;2023-07-31T06:01:59;100254.59;;;17.61;81.70
3780;BME280;1905;52.482;9.802;2023-07-31T06:04:27;100247.31;;;17.63;81.57
3780;BME280;1905;52.482;9.802;2023-07-31T06:06:56;100240.50;;;17.59;85.61
3780;BME280;1905;52.482;9.802;2023-07-31T06:09:24;100240.25;;;17.62;82.12
3780;BME280;1905;52.482;9.802;2023-07-31T06:11:52;100238.28;;;17.64;81.84
3780;BME280;1905;52.482;9.802;2023-07-31T06:14:20;100238.06;;;17.67;81.57
3780;BME280;1905;52.482;9.802;2023-07-31T06:16:49;100236.00;;;17.70;81.41
3780;BME280;1905;52.482;9.802;2023-07-31T06:19:17;100239.03;;;17.66;82.60
3780;BME280;1905;52.482;9.802;2023-07-31T06:21:45;100232.47;;;17.70;82.97
3780;BME280;1905;52.482;9.802;2023-07-31T06:24:13;100235.03;;;17.71;83.24
3780;BME280;1905;52.482;9.802;2023-07-31T06:26:45;100235.63;;;17.75;82.47
3780;BME280;1905;52.482;9.802;2023-07-31T06:29:13;100236.72;;;17.72;82.79
3780;BME280;1905;52.482;9.802;2023-07-31T06:31:41;100232.47;;;17.70;85.66
3780;BME280;1905;52.482;9.802;2023-07-31T06:34:10;100229.09;;;17.68;85.38
3780;BME280;1905;52.482;9.802;2023-07-31T06:36:38;100224.22;;;17.73;85.33
3780;BME280;1905;52.482;9.802;2023-07-31T06:39:07;100224.09;;;17.74;84.21
3780;BME280;1905;52.482;9.802;2023-07-31T06:41:35;100227.03;;;17.71;85.72
3780;BME280;1905;52.482;9.802;2023-07-31T06:44:05;100224.94;;;17.75;84.17
3780;BME280;1905;52.482;9.802;2023-07-31T06:46:33;100231.75;;;17.79;83.52
3780;BME280;1905;52.482;9.802;2023-07-31T06:49:00;100223.25;;;17.85;85.28
3780;BME280;1905;52.482;9.802;2023-07-31T06:51:29;100227.34;;;17.78;85.65
3780;BME280;1905;52.482;9.802;2023-07-31T06:53:57;100236.84;;;17.82;86.19
3780;BME280;1905;52.482;9.802;2023-07-31T06:56:26;100235.97;;;17.81;85.14
3780;BME280;1905;52.482;9.802;2023-07-31T06:58:55;100235.38;;;17.78;85.55
3780;BME280;1905;52.482;9.802;2023-07-31T07:01:23;100233.44;;;17.80;85.04
3780;BME280;1905;52.482;9.802;2023-07-31T07:03:50;100234.41;;;17.79;85.79
3780;BME280;1905;52.482;9.802;2023-07-31T07:06:18;100237.09;;;17.79;85.36
3780;BME280;1905;52.482;9.802;2023-07-31T07:08:48;100233.19;;;17.83;84.62
3780;BME280;1905;52.482;9.802;2023-07-31T07:11:16;100233.19;;;17.83;85.16
3780;BME280;1905;52.482;9.802;2023-07-31T07:13:43;100235.50;;;17.88;84.55
3780;BME280;1905;52.482;9.802;2023-07-31T07:16:11;100223.97;;;17.87;84.68
3780;BME280;1905;52.482;9.802;2023-07-31T07:18:40;100236.34;;;17.88;83.86
3780;BME280;1905;52.482;9.802;2023-07-31T07:21:27;100231.97;;;17.87;84.91
3780;BME280;1905;52.482;9.802;2023-07-31T07:23:56;100229.16;;;17.89;85.17
3780;BME280;1905;52.482;9.802;2023-07-31T07:26:23;100241.09;;;17.84;85.33
3780;BME280;1905;52.482;9.802;2023-07-31T07:28:51;100260.75;;;17.83;87.04
3780;BME280;1905;52.482;9.802;2023-07-31T07:31:20;100265.00;;;17.86;84.89
3780;BME280;1905;52.482;9.802;2023-07-31T07:33:48;100243.63;;;17.86;86.11
3780;BME280;1905;52.482;9.802;2023-07-31T07:36:15;100234.88;;;17.84;87.13
3780;BME280;1905;52.482;9.802;2023-07-31T07:38:43;100228.19;;;17.90;87.11
3780;BME280;1905;52.482;9.802;2023-07-31T07:41:13;100220.66;;;17.95;85.67
3780;BME280;1905;52.482;9.802;2023-07-31T07:43:41;100228.56;;;17.96;86.97
3780;BME280;1905;52.482;9.802;2023-07-31T07:46:09;100231.94;;;17.98;86.58
3780;BME280;1905;52.482;9.802;2023-07-31T07:48:36;100233.38;;;18.02;88.67
3780;BME280;1905;52.482;9.802;2023-07-31T07:51:04;100242.16;;;18.04;87.42
3780;BME280;1905;52.482;9.802;2023-07-31T07:53:32;100239.09;;;18.09;86.92
3780;BME280;1905;52.482;9.802;2023-07-31T07:56:01;100229.59;;;18.16;85.96
3780;BME280;1905;52.482;9.802;2023-07-31T07:58:30;100226.56;;;18.20;86.94
3780;BME280;1905;52.482;9.802;2023-07-31T08:00:58;100229.69;;;18.25;85.96
3780;BME280;1905;52.482;9.802;2023-07-31T08:03:52;100224.44;;;18.24;87.20
3780;BME280;1905;52.482;9.802;2023-07-31T08:06:20;100229.44;;;18.28;90.28
3780;BME280;1905;52.482;9.802;2023-07-31T08:08:49;100241.44;;;18.34;89.22
3780;BME280;1905;52.482;9.802;2023-07-31T08:11:16;100243.03;;;18.36;88.71
3780;BME280;1905;52.482;9.802;2023-07-31T08:13:46;100238.38;;;18.50;87.37
3780;BME280;1905;52.482;9.802;2023-07-31T08:16:14;100231.06;;;18.52;87.59
3780;BME280;1905;52.482;9.802;2023-07-31T08:18:42;100238.72;;;18.56;86.98
3780;BME280;1905;52.482;9.802;2023-07-31T08:21:10;100239.03;;;18.63;86.28
3780;BME280;1905;52.482;9.802;2023-07-31T08:23:38;100235.72;;;18.70;86.40
3780;BME280;1905;52.482;9.802;2023-07-31T08:26:06;100228.16;;;18.75;85.57
3780;BME280;1905;52.482;9.802;2023-07-31T08:28:34;100232.41;;;18.78;86.75
3780;BME280;1905;52.482;9.802;2023-07-31T08:31:04;100223.47;;;18.88;85.78
3780;BME280;1905;52.482;9.802;2023-07-31T08:33:32;100230.94;;;18.94;84.82
3780;BME280;1905;52.482;9.802;2023-07-31T08:36:00;100235.34;;;18.95;84.02
3780;BME280;1905;52.482;9.802;2023-07-31T08:38:28;100222.34;;;18.91;86.04
3780;BME280;1905;52.482;9.802;2023-07-31T08:40:58;100219.34;;;19.05;83.66
3780;BME280;1905;52.482;9.802;2023-07-31T08:43:27;100214.78;;;18.96;86.41
3780;BME280;1905;52.482;9.802;2023-07-31T08:45:55;100214.56;;;19.09;83.51
3780;BME280;1905;52.482;9.802;2023-07-31T08:48:26;100216.88;;;19.13;84.78
3780;BME280;1905;52.482;9.802;2023-07-31T08:50:54;100209.81;;;19.12;83.99
3780;BME280;1905;52.482;9.802;2023-07-31T08:53:22;100196.59;;;19.20;83.99
3780;BME280;1905;52.482;9.802;2023-07-31T08:55:52;100205.06;;;19.25;83.83
3780;BME280;1905;52.482;9.802;2023-07-31T08:58:21;100195.38;;;19.34;83.30
3780;BME280;1905;52.482;9.802;2023-07-31T09:00:50;100199.19;;;19.31;83.42
3780;BME280;1905;52.482;9.802;2023-07-31T09:03:22;100203.03;;;19.38;83.24
3780;BME280;1905;52.482;9.802;2023-07-31T09:05:53;100203.78;;;19.40;82.75
3780;BME280;1905;52.482;9.802;2023-07-31T09:08:22;100198.66;;;19.37;83.40
3780;BME280;1905;52.482;9.802;2023-07-31T09:10:50;100193.34;;;19.47;82.22
3780;BME280;1905;52.482;9.802;2023-07-31T09:13:19;100189.28;;;19.52;81.55
3780;BME280;1905;52.482;9.802;2023-07-31T09:15:47;100179.28;;;19.54;81.39
3780;BME280;1905;52.482;9.802;2023-07-31T09:18:15;100185.38;;;19.56;81.69
3780;BME280;1905;52.482;9.802;2023-07-31T09:21:01;100185.22;;;19.58;81.27
3780;BME280;1905;52.482;9.802;2023-07-31T09:23:43;100180.41;;;19.52;83.22
3780;BME280;1905;52.482;9.802;2023-07-31T09:26:28;100174.66;;;19.56;81.70
3780;BME280;1905;52.482;9.802;2023-07-31T09:28:56;100169.84;;;19.60;82.18
3780;BME280;1905;52.482;9.802;2023-07-31T09:31:38;100166.72;;;19.55;84.65
3780;BME280;1905;52.482;9.802;2023-07-31T09:34:07;100161.25;;;19.56;83.71
3780;BME280;1905;52.482;9.802;2023-07-31T09:36:41;100164.63;;;19.58;83.76
3780;BME280;1905;52.482;9.802;2023-07-31T09:39:10;100164.38;;;19.62;83.82
3780;BME280;1905;52.482;9.802;2023-07-31T09:41:40;100162.38;;;19.64;82.89
3780;BME280;1905;52.482;9.802;2023-07-31T09:44:08;100165.06;;;19.64;84.05
3780;BME280;1905;52.482;9.802;2023-07-31T09:46:36;100166.66;;;19.76;82.81
3780;BME280;1905;52.482;9.802;2023-07-31T09:49:07;100166.34;;;19.79;82.29
3780;BME280;1905;52.482;9.802;2023-07-31T09:51:37;100167.25;;;19.89;81.29
3780;BME280;1905;52.482;9.802;2023-07-31T09:54:11;100153.13;;;19.96;80.94
3780;BME280;1905;52.482;9.802;2023-07-31T09:56:42;100153.13;;;19.96;81.45
3780;BME280;1905;52.482;9.802;2023-07-31T09:59:13;100149.19;;;20.00;81.17
3780;BME280;1905;52.482;9.802;2023-07-31T10:01:42;100151.72;;;20.02;80.87
3780;BME280;1905;52.482;9.802;2023-07-31T10:04:11;100146.09;;;20.05;80.63
3780;BME280;1905;52.482;9.802;2023-07-31T10:06:41;100145.66;;;20.09;80.19
3780;BME280;1905;52.482;9.802;2023-07-31T10:09:13;100154.25;;;19.94;83.03
3780;BME280;1905;52.482;9.802;2023-07-31T10:11:47;100143.53;;;19.94;81.64
3780;BME280;1905;52.482;9.802;2023-07-31T10:14:20;100139.31;;;20.01;80.92
3780;BME280;1905;52.482;9.802;2023-07-31T10:16:48;100137.03;;;20.06;80.90
3780;BME280;1905;52.482;9.802;2023-07-31T10:19:17;100143.41;;;20.05;80.90
3780;BME280;1905;52.482;9.802;2023-07-31T10:21:48;100143.53;;;20.03;81.69
3780;BME280;1905;52.482;9.802;2023-07-31T10:24:18;100129.84;;;20.06;81.85
3780;BME280;1905;52.482;9.802;2023-07-31T10:26:48;100127.75;;;20.10;80.93
3780;BME280;1905;52.482;9.802;2023-07-31T10:29:17;100129.31;;;20.12;80.44
3780;BME280;1905;52.482;9.802;2023-07-31T10:31:47;100128.59;;;20.10;80.93
3780;BME280;1905;52.482;9.802;2023-07-31T10:34:16;100125.47;;;20.15;80.24
3780;BME280;1905;52.482;9.802;2023-07-31T10:36:44;100121.53;;;20.19;80.12
3780;BME280;1905;52.482;9.802;2023-07-31T10:39:37;100117.72;;;20.22;80.12
3780;BME280;1905;52.482;9.802;2023-07-31T10:42:12;100119.56;;;20.21;80.52
3780;BME280;1905;52.482;9.802;2023-07-31T10:44:43;100112.50;;;20.20;80.77
3780;BME280;1905;52.482;9.802;2023-07-31T10:47:14;100107.13;;;20.20;80.77
3780;BME280;1905;52.482;9.802;2023-07-31T10:49:44;100099.53;;;20.25;80.39
3780;BME280;1905;52.482;9.802;2023-07-31T10:52:13;100100.91;;;20.19;80.82
3780;BME280;1905;52.482;9.802;2023-07-31T10:54:42;100106.75;;;20.25;80.87
3780;BME280;1905;52.482;9.802;2023-07-31T10:57:19;100105.63;;;20.27;80.44
3780;BME280;1905;52.482;9.802;2023-07-31T10:59:48;100095.88;;;20.26;80.77
3780;BME280;1905;52.482;9.802;2023-07-31T11:02:26;100104.34;;;20.31;80.15
3780;BME280;1905;52.482;9.802;2023-07-31T11:05:06;100089.50;;;20.17;81.94
3780;BME280;1905;52.482;9.802;2023-07-31T11:07:47;100092.22;;;20.27;80.12
3780;BME280;1905;52.482;9.802;2023-07-31T11:10:18;100093.59;;;20.31;80.68
3780;BME280;1905;52.482;9.802;2023-07-31T11:12:46;100089.53;;;20.27;81.41
3780;BME280;1905;52.482;9.802;2023-07-31T11:15:14;100087.66;;;20.28;81.19
3780;BME280;1905;52.482;9.802;2023-07-31T11:17:41;100078.66;;;20.29;80.99
3780;BME280;1905;52.482;9.802;2023-07-31T11:20:10;100082.44;;;20.36;80.40
3780;BME280;1905;52.482;9.802;2023-07-31T11:22:38;100085.13;;;20.36;81.10
3780;BME280;1905;52.482;9.802;2023-07-31T11:25:08;100079.47;;;20.39;80.72
3780;BME280;1905;52.482;9.802;2023-07-31T11:27:41;100076.50;;;20.42;80.18
3780;BME280;1905;52.482;9.802;2023-07-31T11:30:11;100078.03;;;20.44;80.21
3780;BME280;1905;52.482;9.802;2023-07-31T11:32:38;100074.94;;;20.39;81.69
3780;BME280;1905;52.482;9.802;2023-07-31T11:35:07;100073.69;;;20.43;80.34
3780;BME280;1905;52.482;9.802;2023-07-31T11:37:39;100073.56;;;20.35;81.50
3780;BME280;1905;52.482;9.802;2023-07-31T11:40:07;100075.53;;;20.33;81.43
3780;BME280;1905;52.482;9.802;2023-07-31T11:42:36;100074.94;;;20.39;80.46
3780;BME280;1905;52.482;9.802;2023-07-31T11:45:07;100076.25;;;20.35;81.66
3780;BME280;1905;52.482;9.802;2023-07-31T11:47:36;100071.56;;;20.37;80.82
3780;BME280;1905;52.482;9.802;2023-07-31T11:50:07;100070.16;;;20.33;82.38
3780;BME280;1905;52.482;9.802;2023-07-31T11:52:40;100070.75;;;20.27;82.42
3780;BME280;1905;52.482;9.802;2023-07-31T11:55:10;100065.94;;;20.31;81.51
3780;BME280;1905;52.482;9.802;2023-07-31T11:57:40;100064.50;;;20.36;81.36
3780;BME280;1905;52.482;9.802;2023-07-31T12:00:11;100060.97;;;20.36;80.81
3780;BME280;1905;52.482;9.802;2023-07-31T12:02:41;100066.50;;;20.34;81.38
3780;BME280;1905;52.482;9.802;2023-07-31T12:05:10;100060.00;;;20.37;81.27
3780;BME280;1905;52.482;9.802;2023-07-31T12:07:49;100062.84;;;20.35;81.96
3780;BME280;1905;52.482;9.802;2023-07-31T12:10:25;100068.03;;;20.37;82.12
3780;BME280;1905;52.482;9.802;2023-07-31T12:12:58;100058.28;;;20.36;81.90
3780;BME280;1905;52.482;9.802;2023-07-31T12:15:36;100059.31;;;20.35;82.29
3780;BME280;1905;52.482;9.802;2023-07-31T12:18:05;100055.75;;;20.34;82.83
3780;BME280;1905;52.482;9.802;2023-07-31T12:20:34;100062.97;;;20.34;81.78
3780;BME280;1905;52.482;9.802;2023-07-31T12:23:02;100053.94;;;20.25;83.42
3780;BME280;1905;52.482;9.802;2023-07-31T12:25:31;100054.91;;;20.34;81.91
3780;BME280;1905;52.482;9.802;2023-07-31T12:28:06;100054.06;;;20.33;82.58
3780;BME280;1905;52.482;9.802;2023-07-31T12:30:40;100052.50;;;20.21;83.16
3780;BME280;1905;52.482;9.802;2023-07-31T12:33:13;100050.97;;;20.28;84.49
3780;BME280;1905;52.482;9.802;2023-07-31T12:35:44;100040.13;;;20.30;82.95
3780;BME280;1905;52.482;9.802;2023-07-31T12:38:12;100048.97;;;20.30;83.64
3780;BME280;1905;52.482;9.802;2023-07-31T12:40:41;100041.91;;;20.39;82.61
3780;BME280;1905;52.482;9.802;2023-07-31T12:43:09;100038.97;;;20.32;83.49
3780;BME280;1905;52.482;9.802;2023-07-31T12:45:36;100039.38;;;20.37;83.58
3780;BME280;1905;52.482;9.802;2023-07-31T12:48:06;100039.84;;;20.33;85.26
3780;BME280;1905;52.482;9.802;2023-07-31T12:50:33;100038.41;;;20.38;83.61
3780;BME280;1905;52.482;9.802;2023-07-31T12:53:04;100031.75;;;20.42;83.62
3780;BME280;1905;52.482;9.802;2023-07-31T12:55:32;100031.75;;;20.42;85.03
3780;BME280;1905;52.482;9.802;2023-07-31T12:58:01;100033.44;;;20.43;83.98
3780;BME280;1905;52.482;9.802;2023-07-31T13:00:29;100041.63;;;20.51;83.19
3780;BME280;1905;52.482;9.802;2023-07-31T13:02:57;100030.03;;;20.51;83.01
3780;BME280;1905;52.482;9.802;2023-07-31T13:05:26;100021.81;;;20.52;83.60
3780;BME280;1905;52.482;9.802;2023-07-31T13:07:55;100038.31;;;20.57;82.39
3780;BME280;1905;52.482;9.802;2023-07-31T13:10:23;100027.19;;;20.52;82.68
3780;BME280;1905;52.482;9.802;2023-07-31T13:12:53;100020.72;;;20.45;83.78
3780;BME280;1905;52.482;9.802;2023-07-31T13:15:20;100021.97;;;20.51;82.63
3780;BME280;1905;52.482;9.802;2023-07-31T13:17:48;100028.09;;;20.43;83.70
3780;BME280;1905;52.482;9.802;2023-07-31T13:20:17;100024.38;;;20.44;82.92
3780;BME280;1905;52.482;9.802;2023-07-31T13:22:46;100023.56;;;20.34;83.77